createdAt,value
2023-03-16T00:01:26.442Z,50.90
2023-03-16T00:03:53.324Z,51.00
2023-03-16T00:06:25.842Z,51.00
2023-03-16T00:08:52.796Z,51.10
2023-03-16T00:11:24.239Z,51.20
2023-03-16T00:13:51.573Z,51.20
2023-03-16T00:16:20.990Z,51.30
2023-03-16T00:18:50.421Z,51.30
2023-03-16T00:21:17.312Z,51.20
2023-03-16T00:23:44.208Z,51.30
2023-03-16T00:26:13.769Z,51.30
2023-03-16T00:28:42.640Z,51.40
2023-03-16T00:31:13.744Z,51.40
2023-03-16T00:33:45.388Z,51.50
2023-03-16T00:36:12.560Z,51.50
2023-03-16T00:38:46.796Z,51.80
2023-03-16T00:41:15.642Z,51.50
2023-03-16T00:43:45.671Z,51.50
2023-03-16T00:46:18.624Z,51.60
2023-03-16T00:48:49.094Z,51.60
2023-03-16T00:51:22.858Z,51.70
2023-03-16T00:53:50.251Z,51.70
2023-03-16T00:56:17.493Z,51.80
2023-03-16T00:58:44.538Z,51.80
2023-03-16T01:01:20.230Z,51.80
2023-03-16T01:03:49.811Z,51.90
2023-03-16T01:06:18.035Z,51.90
2023-03-16T01:08:47.773Z,51.90
2023-03-16T01:11:18.627Z,51.90
2023-03-16T01:13:49.525Z,51.90
2023-03-16T01:16:23.217Z,51.90
2023-03-16T01:18:50.369Z,52.00
2023-03-16T01:21:21.624Z,52.60
2023-03-16T01:23:48.544Z,51.90
2023-03-16T01:26:18.643Z,52.00
2023-03-16T01:28:50.364Z,52.00
2023-03-16T01:31:17.286Z,52.00
2023-03-16T01:33:46.518Z,52.00
2023-03-16T01:36:21.265Z,52.00
2023-03-16T01:38:48.483Z,52.10
2023-03-16T01:41:20.000Z,52.10
2023-03-16T01:43:47.370Z,52.20
2023-03-16T01:46:23.039Z,52.20
2023-03-16T01:49:27.043Z,52.20
2023-03-16T01:52:26.171Z,52.30
2023-03-16T01:55:05.056Z,52.40
2023-03-16T01:57:39.907Z,52.30
2023-03-16T02:00:41.829Z,52.20
2023-03-16T02:03:15.627Z,52.20
2023-03-16T02:05:49.296Z,52.30
2023-03-16T02:08:20.105Z,52.30
2023-03-16T02:10:49.130Z,52.30
2023-03-16T02:13:20.668Z,52.40
2023-03-16T02:15:47.486Z,52.40
2023-03-16T02:18:15.059Z,52.60
2023-03-16T02:21:04.453Z,52.30
2023-03-16T02:23:32.666Z,52.60
2023-03-16T02:26:07.908Z,52.40
2023-03-16T02:29:21.878Z,52.40
2023-03-16T02:31:49.039Z,52.50
2023-03-16T02:34:19.747Z,52.50
2023-03-16T02:36:52.291Z,52.60
2023-03-16T02:39:19.377Z,52.60
2023-03-16T02:41:47.107Z,52.70
2023-03-16T02:44:43.725Z,52.70
2023-03-16T02:47:36.258Z,52.90
2023-03-16T02:50:07.031Z,52.90
2023-03-16T02:52:36.891Z,52.80
2023-03-16T02:55:09.293Z,52.80
2023-03-16T02:57:38.566Z,52.80
2023-03-16T03:00:13.168Z,52.80
2023-03-16T03:02:42.352Z,52.70
2023-03-16T03:05:12.653Z,52.80
2023-03-16T03:07:39.661Z,52.80
2023-03-16T03:10:07.532Z,52.80
2023-03-16T03:12:37.214Z,52.80
2023-03-16T03:15:05.083Z,52.80
2023-03-16T03:17:32.121Z,52.80
2023-03-16T03:20:13.904Z,52.80
2023-03-16T03:22:41.031Z,52.80
2023-03-16T03:25:14.032Z,52.80
2023-03-16T03:27:43.661Z,52.80
2023-03-16T03:30:18.423Z,52.90
2023-03-16T03:32:45.433Z,52.90
2023-03-16T03:35:14.466Z,52.90
2023-03-16T03:37:44.477Z,52.90
2023-03-16T03:40:15.017Z,52.90
2023-03-16T03:42:43.042Z,53.00
2023-03-16T03:45:15.013Z,53.00
2023-03-16T03:47:45.880Z,53.00
2023-03-16T03:50:16.350Z,53.00
2023-03-16T03:52:43.272Z,53.10
2023-03-16T03:55:10.804Z,53.10
2023-03-16T03:57:40.121Z,53.20
2023-03-16T04:00:11.472Z,53.10
2023-03-16T04:02:38.994Z,53.10
2023-03-16T04:05:07.485Z,53.20
2023-03-16T04:07:36.688Z,53.20
2023-03-16T04:10:07.397Z,53.20
2023-03-16T04:12:34.294Z,53.20
2023-03-16T04:15:01.164Z,53.20
2023-03-16T04:17:30.355Z,53.20
2023-03-16T04:19:57.220Z,53.20
2023-03-16T04:22:24.184Z,53.20
2023-03-16T04:24:52.309Z,53.30
2023-03-16T04:27:22.199Z,53.40
2023-03-16T04:29:49.128Z,53.40
2023-03-16T04:32:15.980Z,53.40
2023-03-16T04:34:47.156Z,53.40
2023-03-16T04:37:14.069Z,53.40
2023-03-16T04:39:41.976Z,53.40
2023-03-16T04:42:08.864Z,53.40
2023-03-16T04:44:44.507Z,53.40
2023-03-16T04:47:14.646Z,53.40
2023-03-16T04:49:41.854Z,53.40
2023-03-16T04:52:11.304Z,53.40
2023-03-16T04:54:41.146Z,53.50
2023-03-16T04:57:08.640Z,53.50
2023-03-16T04:59:38.089Z,53.50
2023-03-16T05:02:07.603Z,53.50
2023-03-16T05:04:39.238Z,53.50
2023-03-16T05:07:06.270Z,53.60
2023-03-16T05:09:33.138Z,53.80
2023-03-16T05:12:00.130Z,53.50
2023-03-16T05:14:27.439Z,53.50
2023-03-16T05:16:54.352Z,53.60
2023-03-16T05:19:23.506Z,53.60
2023-03-16T05:21:52.850Z,53.60
2023-03-16T05:24:21.870Z,53.70
2023-03-16T05:26:48.712Z,53.70
2023-03-16T05:29:15.675Z,54.40
2023-03-16T05:31:42.572Z,53.80
2023-03-16T05:34:09.404Z,53.70
2023-03-16T05:36:40.827Z,53.70
2023-03-16T05:39:09.787Z,53.70
2023-03-16T05:41:37.217Z,53.80
2023-03-16T05:44:04.568Z,53.80
2023-03-16T05:46:41.160Z,53.80
2023-03-16T05:49:08.093Z,53.80
2023-03-16T05:51:37.266Z,53.80
2023-03-16T05:54:04.899Z,53.90
2023-03-16T05:56:31.800Z,53.90
2023-03-16T05:59:01.325Z,53.90
2023-03-16T06:01:30.984Z,54.00
2023-03-16T06:04:03.425Z,54.00
2023-03-16T06:06:32.544Z,54.00
2023-03-16T06:08:59.873Z,54.00
2023-03-16T06:11:26.669Z,54.10
2023-03-16T06:13:53.719Z,54.00
2023-03-16T06:16:20.837Z,54.00
2023-03-16T06:18:49.935Z,54.00
2023-03-16T06:21:16.908Z,54.00
2023-03-16T06:23:44.990Z,54.00
2023-03-16T06:26:11.886Z,54.00
2023-03-16T06:28:41.840Z,54.10
2023-03-16T06:31:11.226Z,54.10
2023-03-16T06:33:38.832Z,54.20
2023-03-16T06:36:08.739Z,54.20
2023-03-16T06:38:35.759Z,54.30
2023-03-16T06:41:02.678Z,54.40
2023-03-16T06:43:29.670Z,54.50
2023-03-16T06:45:56.555Z,54.50
2023-03-16T06:48:25.950Z,54.50
2023-03-16T06:50:52.822Z,54.60
2023-03-16T06:53:19.764Z,54.60
2023-03-16T06:55:49.385Z,54.60
2023-03-16T06:58:19.094Z,54.60
2023-03-16T07:00:46.116Z,54.60
2023-03-16T07:03:13.844Z,54.70
2023-03-16T07:05:40.742Z,54.70
2023-03-16T07:08:10.222Z,54.70
2023-03-16T07:10:39.545Z,54.90
2023-03-16T07:13:06.524Z,54.80
2023-03-16T07:15:33.345Z,55.00
2023-03-16T07:18:00.163Z,55.10
2023-03-16T07:20:29.019Z,55.30
2023-03-16T07:22:56.011Z,55.60
2023-03-16T07:25:22.913Z,55.70
2023-03-16T07:27:49.905Z,55.70
2023-03-16T07:30:17.031Z,55.70
2023-03-16T07:32:44.241Z,55.50
2023-03-16T07:35:11.725Z,55.50
2023-03-16T07:37:38.788Z,55.50
2023-03-16T07:40:09.181Z,55.40
2023-03-16T07:42:38.379Z,55.40
2023-03-16T07:45:07.430Z,55.20
2023-03-16T07:47:34.763Z,55.30
2023-03-16T07:50:01.707Z,55.50
2023-03-16T07:52:28.645Z,55.70
2023-03-16T07:54:58.144Z,55.70
2023-03-16T07:57:28.031Z,55.80
2023-03-16T07:59:59.544Z,55.70
2023-03-16T08:02:31.439Z,55.60
2023-03-16T08:04:58.333Z,55.10
2023-03-16T08:07:25.703Z,55.40
2023-03-16T08:09:53.194Z,55.80
2023-03-16T08:12:20.165Z,55.20
2023-03-16T08:14:47.126Z,54.70
2023-03-16T08:17:16.548Z,54.20
2023-03-16T08:19:43.478Z,53.50
2023-03-16T08:22:10.695Z,52.90
2023-03-16T08:24:38.378Z,52.10
2023-03-16T08:27:07.860Z,51.20
2023-03-16T08:29:35.434Z,50.30
2023-03-16T08:32:03.005Z,49.70
2023-03-16T08:34:36.240Z,49.00
2023-03-16T08:37:05.501Z,48.30
2023-03-16T08:39:35.654Z,48.00
2023-03-16T08:42:05.384Z,47.40
2023-03-16T08:44:33.001Z,46.80
2023-03-16T08:47:01.557Z,46.10
2023-03-16T08:49:29.768Z,45.70
2023-03-16T08:51:57.228Z,45.10
2023-03-16T08:54:24.342Z,44.70
2023-03-16T08:56:55.898Z,44.40
2023-03-16T08:59:30.289Z,44.00
2023-03-16T09:02:00.548Z,43.60
2023-03-16T09:04:28.466Z,43.30
2023-03-16T09:07:07.998Z,43.10
2023-03-16T09:09:36.665Z,42.90
2023-03-16T09:12:05.952Z,42.80
2023-03-16T09:14:33.307Z,42.40
2023-03-16T09:17:05.210Z,42.10
2023-03-16T09:19:50.098Z,41.50
2023-03-16T09:22:19.866Z,41.40
2023-03-16T09:24:50.175Z,41.30
2023-03-16T09:27:20.663Z,40.80
2023-03-16T09:29:53.026Z,40.60
2023-03-16T09:32:23.234Z,40.20
2023-03-16T09:34:50.561Z,39.80
2023-03-16T09:37:17.438Z,39.60
2023-03-16T09:39:45.650Z,38.10
2023-03-16T09:42:34.235Z,36.80
2023-03-16T09:45:18.829Z,35.70
2023-03-16T09:47:49.696Z,35.40
2023-03-16T09:50:47.838Z,36.30
2023-03-16T09:53:34.339Z,36.30
2023-03-16T09:56:31.162Z,37.60
2023-03-16T09:58:59.350Z,37.80
2023-03-16T10:01:40.621Z,37.50
2023-03-16T10:04:50.570Z,37.70
2023-03-16T10:07:22.238Z,36.40
2023-03-16T10:10:25.336Z,37.20
2023-03-16T10:12:54.865Z,36.90
2023-03-16T10:15:29.792Z,36.40
2023-03-16T10:18:18.751Z,35.60
2023-03-16T10:20:50.751Z,35.20
2023-03-16T10:23:24.969Z,35.70
2023-03-16T10:25:56.892Z,35.30
2023-03-16T10:28:32.165Z,36.30
2023-03-16T10:31:05.294Z,35.70
2023-03-16T10:33:39.434Z,36.10
2023-03-16T10:36:31.240Z,36.50
2023-03-16T10:39:16.414Z,36.20
2023-03-16T10:41:47.010Z,36.40
2023-03-16T10:44:22.704Z,36.30
2023-03-16T10:47:05.103Z,35.80
2023-03-16T10:49:48.718Z,35.30
2023-03-16T10:52:20.207Z,35.10
2023-03-16T10:54:59.363Z,35.20
2023-03-16T10:57:31.220Z,34.60
2023-03-16T11:00:28.861Z,34.90
2023-03-16T11:02:59.119Z,35.10
2023-03-16T11:05:31.574Z,35.30
2023-03-16T11:08:18.789Z,35.70
2023-03-16T11:10:56.230Z,35.60
2023-03-16T11:13:33.812Z,35.80
2023-03-16T11:16:39.598Z,34.90
2023-03-16T11:19:29.298Z,33.60
2023-03-16T11:22:20.505Z,34.40
2023-03-16T11:24:50.825Z,34.90
2023-03-16T11:27:33.076Z,35.50
2023-03-16T11:30:12.354Z,34.70
2023-03-16T11:32:45.986Z,35.50
2023-03-16T11:35:58.447Z,35.50
2023-03-16T11:39:17.296Z,34.60
2023-03-16T11:42:11.299Z,35.10
2023-03-16T11:44:56.922Z,34.70
2023-03-16T11:47:34.462Z,34.10
2023-03-16T11:50:44.197Z,34.70
2023-03-16T11:53:42.653Z,35.70
2023-03-16T11:56:37.684Z,33.50
2023-03-16T11:59:30.360Z,35.20
2023-03-16T12:02:09.111Z,34.80
2023-03-16T12:04:56.645Z,34.50
2023-03-16T12:07:39.592Z,35.50
2023-03-16T12:10:45.194Z,34.90
2023-03-16T12:13:37.533Z,34.70
2023-03-16T12:16:22.825Z,34.60
2023-03-16T12:19:01.495Z,33.10
2023-03-16T12:21:42.288Z,34.50
2023-03-16T12:24:27.298Z,32.60
2023-03-16T12:26:55.017Z,33.50
2023-03-16T12:29:57.768Z,34.50
2023-03-16T12:33:00.765Z,33.50
2023-03-16T12:35:42.443Z,34.10
2023-03-16T12:38:24.502Z,34.90
2023-03-16T12:41:11.426Z,33.80
2023-03-16T12:44:07.128Z,33.70
2023-03-16T12:46:53.573Z,34.00
2023-03-16T12:49:24.701Z,34.90
2023-03-16T12:52:07.897Z,35.40
2023-03-16T12:54:35.906Z,34.70
2023-03-16T12:57:16.974Z,34.40
2023-03-16T12:59:50.093Z,33.50
2023-03-16T13:02:26.478Z,33.40
2023-03-16T13:05:02.031Z,33.70
2023-03-16T13:07:34.767Z,34.00
2023-03-16T13:10:16.574Z,32.60
2023-03-16T13:12:45.292Z,33.30
2023-03-16T13:15:29.926Z,33.90
2023-03-16T13:18:22.206Z,33.00
2023-03-16T13:21:02.955Z,33.00
2023-03-16T13:23:58.440Z,34.10
2023-03-16T13:26:47.522Z,33.10
2023-03-16T13:29:29.963Z,33.30
2023-03-16T13:32:00.742Z,32.60
2023-03-16T13:34:39.242Z,33.20
2023-03-16T13:37:16.704Z,33.10
2023-03-16T13:39:57.522Z,32.80
2023-03-16T13:42:27.508Z,32.90
2023-03-16T13:44:57.756Z,33.50
2023-03-16T13:47:29.300Z,33.50
2023-03-16T13:49:58.867Z,33.40
2023-03-16T13:52:33.409Z,33.30
2023-03-16T13:55:16.183Z,34.30
2023-03-16T13:57:46.606Z,32.90
2023-03-16T14:00:28.940Z,33.20
2023-03-16T14:02:59.306Z,32.80
2023-03-16T14:05:36.605Z,32.60
2023-03-16T14:08:05.110Z,32.40
2023-03-16T14:10:34.931Z,32.80
2023-03-16T14:13:32.327Z,32.50
2023-03-16T14:16:16.617Z,30.90
2023-03-16T14:18:46.612Z,30.50
2023-03-16T14:21:24.536Z,30.60
2023-03-16T14:24:05.028Z,30.60
2023-03-16T14:26:48.029Z,31.00
2023-03-16T14:29:31.118Z,30.80
2023-03-16T14:31:59.889Z,30.90
2023-03-16T14:34:39.639Z,31.60
2023-03-16T14:37:10.949Z,30.20
2023-03-16T14:39:40.364Z,30.60
2023-03-16T14:42:29.594Z,30.90
2023-03-16T14:44:58.853Z,30.80
2023-03-16T14:47:30.911Z,31.30
2023-03-16T14:50:07.209Z,30.80
2023-03-16T14:52:37.275Z,31.10
2023-03-16T14:55:16.120Z,31.50
2023-03-16T14:57:45.498Z,31.60
2023-03-16T15:00:15.522Z,32.00
2023-03-16T15:02:46.013Z,31.50
2023-03-16T15:05:24.673Z,31.00
2023-03-16T15:07:55.144Z,30.80
2023-03-16T15:10:29.619Z,31.40
2023-03-16T15:13:12.985Z,31.40
2023-03-16T15:15:42.550Z,31.70
2023-03-16T15:18:12.102Z,32.20
2023-03-16T15:20:43.399Z,32.10
2023-03-16T15:23:19.004Z,32.00
2023-03-16T15:25:47.453Z,32.20
2023-03-16T15:28:22.410Z,32.30
2023-03-16T15:30:55.418Z,32.50
2023-03-16T15:33:22.810Z,32.20
2023-03-16T15:35:52.144Z,32.20
2023-03-16T15:38:34.551Z,31.70
2023-03-16T15:41:03.945Z,32.20
2023-03-16T15:43:31.999Z,31.70
2023-03-16T15:46:02.255Z,32.00
2023-03-16T15:48:29.165Z,32.50
2023-03-16T15:51:12.391Z,32.00
2023-03-16T15:54:05.926Z,32.20
2023-03-16T15:56:52.695Z,32.70
2023-03-16T15:59:24.168Z,33.20
2023-03-16T16:01:52.354Z,33.30
2023-03-16T16:04:22.782Z,33.40
2023-03-16T16:06:54.373Z,33.40
2023-03-16T16:09:22.145Z,32.80
2023-03-16T16:11:50.441Z,31.70
2023-03-16T16:14:24.879Z,32.40
2023-03-16T16:16:54.659Z,32.20
2023-03-16T16:19:21.713Z,32.30
2023-03-16T16:21:48.876Z,32.40
2023-03-16T16:24:19.106Z,32.50
2023-03-16T16:26:55.335Z,32.40
2023-03-16T16:29:27.944Z,32.60
2023-03-16T16:31:57.513Z,32.70
2023-03-16T16:34:25.671Z,32.40
2023-03-16T16:36:57.222Z,32.80
2023-03-16T16:39:24.626Z,32.20
2023-03-16T16:41:54.937Z,32.20
2023-03-16T16:44:27.893Z,33.00
2023-03-16T16:46:55.443Z,32.70
2023-03-16T16:49:31.065Z,32.50
2023-03-16T16:51:59.300Z,32.50
2023-03-16T16:54:30.210Z,32.70
2023-03-16T16:57:00.008Z,32.70
2023-03-16T16:59:33.247Z,33.00
2023-03-16T17:02:03.257Z,33.00
2023-03-16T17:04:30.778Z,33.00
2023-03-16T17:07:02.083Z,33.30
2023-03-16T17:09:32.332Z,33.60
2023-03-16T17:12:02.438Z,33.60
2023-03-16T17:14:32.172Z,33.40
2023-03-16T17:17:02.724Z,33.40
2023-03-16T17:19:29.795Z,33.60
2023-03-16T17:22:01.383Z,33.60
2023-03-16T17:24:29.640Z,33.70
2023-03-16T17:26:59.330Z,34.00
2023-03-16T17:29:31.331Z,34.00
2023-03-16T17:32:03.294Z,33.70
2023-03-16T17:34:35.467Z,33.90
2023-03-16T17:37:13.189Z,34.00
2023-03-16T17:39:40.383Z,33.90
2023-03-16T17:42:14.374Z,34.00
2023-03-16T17:44:48.691Z,33.90
2023-03-16T17:47:24.458Z,34.10
2023-03-16T17:49:54.510Z,34.50
2023-03-16T17:52:25.362Z,35.00
2023-03-16T17:54:53.872Z,35.20
2023-03-16T17:57:32.746Z,35.50
2023-03-16T18:00:02.086Z,35.80
2023-03-16T18:03:04.129Z,35.90
2023-03-16T18:05:34.620Z,36.30
2023-03-16T18:08:21.811Z,36.30
2023-03-16T18:10:58.586Z,36.30
2023-03-16T18:13:35.056Z,36.40
2023-03-16T18:16:06.311Z,36.60
2023-03-16T18:18:39.419Z,36.80
2023-03-16T18:21:06.809Z,37.00
2023-03-16T18:23:35.934Z,37.10
2023-03-16T18:26:04.026Z,37.20
2023-03-16T18:28:32.265Z,37.30
2023-03-16T18:31:03.774Z,38.00
2023-03-16T18:33:34.342Z,37.50
2023-03-16T18:36:17.720Z,37.90
2023-03-16T18:38:48.332Z,37.90
2023-03-16T18:41:39.298Z,38.00
2023-03-16T18:44:21.931Z,38.40
2023-03-16T18:46:50.160Z,38.60
2023-03-16T18:49:27.656Z,39.20
2023-03-16T18:51:55.152Z,38.60
2023-03-16T18:54:30.856Z,38.70
2023-03-16T18:56:58.888Z,38.90
2023-03-16T18:59:28.635Z,39.10
2023-03-16T19:01:58.001Z,39.10
2023-03-16T19:04:33.010Z,39.30
2023-03-16T19:07:02.803Z,39.50
2023-03-16T19:09:32.246Z,39.50
2023-03-16T19:12:03.577Z,39.50
2023-03-16T19:14:35.022Z,39.60
2023-03-16T19:17:04.301Z,39.70
2023-03-16T19:19:33.260Z,39.70
2023-03-16T19:22:12.698Z,39.80
2023-03-16T19:24:46.300Z,40.00
2023-03-16T19:27:25.500Z,40.00
2023-03-16T19:29:53.850Z,40.10
2023-03-16T19:32:21.912Z,40.10
2023-03-16T19:34:49.514Z,40.20
2023-03-16T19:37:19.616Z,40.20
2023-03-16T19:39:49.052Z,40.30
2023-03-16T19:42:37.655Z,40.40
2023-03-16T19:45:06.799Z,40.60
2023-03-16T19:47:35.864Z,40.60
2023-03-16T19:50:12.325Z,40.70
2023-03-16T19:52:39.266Z,40.80
2023-03-16T19:55:06.934Z,40.80
2023-03-16T19:57:36.879Z,40.80
2023-03-16T20:00:06.542Z,40.80
2023-03-16T20:02:40.750Z,40.90
2023-03-16T20:05:11.399Z,41.00
2023-03-16T20:07:38.298Z,41.10
2023-03-16T20:10:11.762Z,41.10
2023-03-16T20:12:44.458Z,41.30
2023-03-16T20:15:20.899Z,41.40
2023-03-16T20:17:49.840Z,41.40
2023-03-16T20:20:29.802Z,41.40
2023-03-16T20:22:59.613Z,41.60
2023-03-16T20:25:32.147Z,41.60
2023-03-16T20:28:02.875Z,41.80
2023-03-16T20:30:31.143Z,41.80
2023-03-16T20:33:00.762Z,41.80
2023-03-16T20:35:31.213Z,41.80
2023-03-16T20:37:58.591Z,41.90
2023-03-16T20:40:25.879Z,41.90
2023-03-16T20:42:53.604Z,42.00
2023-03-16T20:45:27.457Z,42.00
2023-03-16T20:47:54.996Z,42.20
2023-03-16T20:50:29.607Z,42.20
2023-03-16T20:53:03.957Z,42.30
2023-03-16T20:55:36.087Z,42.30
2023-03-16T20:58:03.724Z,42.40
2023-03-16T21:00:37.662Z,42.40
2023-03-16T21:03:16.904Z,42.50
2023-03-16T21:05:49.194Z,42.60
2023-03-16T21:08:20.639Z,42.60
2023-03-16T21:10:50.808Z,42.70
2023-03-16T21:13:28.848Z,42.70
2023-03-16T21:16:01.456Z,42.80
2023-03-16T21:18:33.590Z,42.80
2023-03-16T21:21:00.588Z,42.90
2023-03-16T21:23:27.504Z,42.90
2023-03-16T21:26:03.752Z,43.00
2023-03-16T21:28:35.908Z,43.10
2023-03-16T21:31:03.422Z,43.20
2023-03-16T21:33:37.592Z,43.20
2023-03-16T21:36:16.958Z,43.40
2023-03-16T21:38:47.421Z,43.40
2023-03-16T21:41:17.783Z,43.40
2023-03-16T21:43:45.302Z,43.50
2023-03-16T21:46:24.235Z,43.60
2023-03-16T21:48:55.129Z,43.90
2023-03-16T21:51:31.360Z,43.70
2023-03-16T21:54:01.678Z,43.90
2023-03-16T21:56:30.976Z,43.80
2023-03-16T21:59:00.746Z,43.80
2023-03-16T22:01:30.079Z,43.90
2023-03-16T22:04:02.751Z,44.00
2023-03-16T22:06:32.529Z,44.10
2023-03-16T22:09:02.750Z,44.10
2023-03-16T22:11:30.800Z,44.20
2023-03-16T22:13:59.573Z,44.20
2023-03-16T22:16:34.856Z,44.30
2023-03-16T22:19:08.014Z,44.50
2023-03-16T22:21:40.936Z,44.50
2023-03-16T22:24:18.710Z,44.50
2023-03-16T22:26:46.554Z,44.70
2023-03-16T22:29:21.011Z,44.70
2023-03-16T22:31:48.846Z,44.80
2023-03-16T22:34:51.215Z,44.80
2023-03-16T22:37:23.057Z,45.10
2023-03-16T22:39:53.605Z,44.90
2023-03-16T22:42:20.547Z,44.90
2023-03-16T22:44:47.488Z,45.00
2023-03-16T22:47:32.540Z,45.00
2023-03-16T22:50:02.021Z,45.20
2023-03-16T22:52:35.115Z,45.10
2023-03-16T22:55:06.966Z,45.20
2023-03-16T22:57:34.017Z,45.30
2023-03-16T23:00:11.077Z,45.30
2023-03-16T23:02:40.586Z,45.30
2023-03-16T23:05:28.047Z,45.40
2023-03-16T23:07:56.300Z,45.70
2023-03-16T23:10:30.497Z,45.50
2023-03-16T23:13:00.260Z,45.60
2023-03-16T23:15:30.561Z,45.70
2023-03-16T23:17:57.861Z,45.70
2023-03-16T23:20:31.996Z,45.70
2023-03-16T23:23:01.691Z,45.80
2023-03-16T23:25:31.011Z,45.90
2023-03-16T23:28:01.651Z,45.90
2023-03-16T23:30:31.611Z,46.60
2023-03-16T23:32:58.828Z,46.00
2023-03-16T23:35:30.907Z,46.10
2023-03-16T23:37:58.377Z,46.10
2023-03-16T23:40:28.080Z,46.10
2023-03-16T23:42:58.358Z,46.10
2023-03-16T23:45:42.359Z,46.20
2023-03-16T23:48:28.026Z,46.30
2023-03-16T23:50:56.180Z,46.50
2023-03-16T23:53:23.968Z,46.30
2023-03-16T23:55:51.525Z,46.30
2023-03-16T23:58:18.955Z,46.40
